sensor_id;sensor_type;location;lat;lon;timestamp;pressure;altitude;pressure_sealevel;temperature;humidity
71105;BME280;58760;48.716;8.962;2023-05-02T00:00:46;96580.63;;;8.35;100.00
71105;BME280;58760;48.716;8.962;2023-05-02T00:03:12;96585.94;;;8.17;100.00
71105;BME280;58760;48.716;8.962;2023-05-02T00:05:37;96573.28;;;8.03;100.00
71105;BME280;58760;48.716;8.962;2023-05-02T00:08:03;96577.91;;;8.01;100.00
71105;BME280;58760;48.716;8.962;2023-05-02T00:10:29;96577.22;;;8.25;100.00
71105;BME280;58760;48.716;8.962;2023-05-02T00:12:54;96567.84;;;8.05;100.00
71105;BME280;58760;48.716;8.962;2023-05-02T00:15:20;96573.19;;;7.87;100.00
71105;BME280;58760;48.716;8.962;2023-05-02T00:17:45;96578.41;;;7.79;100.00
71105;BME280;58760;48.716;8.962;2023-05-02T00:20:11;96577.91;;;7.75;100.00
71105;BME280;58760;48.716;8.962;2023-05-02T00:22:37;96577.25;;;7.73;100.00
71105;BME280;58760;48.716;8.962;2023-05-02T00:25:03;96576.84;;;7.68;100.00
71105;BME280;58760;48.716;8.962;2023-05-02T00:27:29;96573.84;;;7.63;100.00
71105;BME280;58760;48.716;8.962;2023-05-02T00:29:55;96583.41;;;7.64;100.00
71105;BME280;58760;48.716;8.962;2023-05-02T00:32:21;96582.22;;;7.59;100.00
71105;BME280;58760;48.716;8.962;2023-05-02T00:34:47;96573.63;;;7.57;100.00
71105;BME280;58760;48.716;8.962;2023-05-02T00:37:12;96574.75;;;7.98;100.00
71105;BME280;58760;48.716;8.962;2023-05-02T00:39:37;96586.56;;;7.85;100.00
71105;BME280;58760;48.716;8.962;2023-05-02T00:42:03;96577.69;;;7.69;100.00
71105;BME280;58760;48.716;8.962;2023-05-02T00:44:29;96587.69;;;7.57;100.00
71105;BME280;58760;48.716;8.962;2023-05-02T00:46:55;96584.81;;;7.51;100.00
71105;BME280;58760;48.716;8.962;2023-05-02T00:49:20;96592.03;;;7.49;100.00
71105;BME280;58760;48.716;8.962;2023-05-02T00:51:46;96585.78;;;7.50;100.00
71105;BME280;58760;48.716;8.962;2023-05-02T00:54:12;96583.97;;;7.50;100.00
71105;BME280;58760;48.716;8.962;2023-05-02T00:56:37;96587.81;;;7.56;100.00
71105;BME280;58760;48.716;8.962;2023-05-02T00:59:03;96587.06;;;7.63;100.00
71105;BME280;58760;48.716;8.962;2023-05-02T01:01:52;96586.75;;;7.66;100.00
71105;BME280;58760;48.716;8.962;2023-05-02T01:09:59;96594.38;;;7.69;100.00
71105;BME280;58760;48.716;8.962;2023-05-02T01:12:32;96593.53;;;7.69;100.00
71105;BME280;58760;48.716;8.962;2023-05-02T01:15:05;96591.41;;;7.72;100.00
71105;BME280;58760;48.716;8.962;2023-05-02T01:17:33;96590.59;;;7.72;100.00
71105;BME280;58760;48.716;8.962;2023-05-02T01:20:05;96592.06;;;7.74;100.00
71105;BME280;58760;48.716;8.962;2023-05-02T01:22:33;96594.81;;;7.65;100.00
71105;BME280;58760;48.716;8.962;2023-05-02T01:27:50;96597.72;;;7.54;100.00
71105;BME280;58760;48.716;8.962;2023-05-02T01:30:21;96591.91;;;7.50;100.00
71105;BME280;58760;48.716;8.962;2023-05-02T01:32:50;96589.19;;;7.42;100.00
71105;BME280;58760;48.716;8.962;2023-05-02T01:35:17;96598.53;;;7.36;100.00
71105;BME280;58760;48.716;8.962;2023-05-02T01:37:44;96596.03;;;7.53;100.00
71105;BME280;58760;48.716;8.962;2023-05-02T01:40:13;96588.47;;;7.58;100.00
71105;BME280;58760;48.716;8.962;2023-05-02T01:42:41;96586.53;;;7.60;100.00
71105;BME280;58760;48.716;8.962;2023-05-02T01:45:09;96592.34;;;7.46;100.00
71105;BME280;58760;48.716;8.962;2023-05-02T01:47:35;96597.25;;;7.41;100.00
71105;BME280;58760;48.716;8.962;2023-05-02T01:50:06;96602.53;;;7.23;100.00
71105;BME280;58760;48.716;8.962;2023-05-02T01:52:33;96597.09;;;7.42;100.00
71105;BME280;58760;48.716;8.962;2023-05-02T01:55:00;96593.03;;;7.30;100.00
71105;BME280;58760;48.716;8.962;2023-05-02T01:57:26;96588.50;;;7.22;100.00
71105;BME280;58760;48.716;8.962;2023-05-02T01:59:55;96585.19;;;7.20;100.00
71105;BME280;58760;48.716;8.962;2023-05-02T02:02:23;96592.59;;;7.17;100.00
71105;BME280;58760;48.716;8.962;2023-05-02T02:04:52;96597.63;;;7.10;100.00
71105;BME280;58760;48.716;8.962;2023-05-02T02:07:19;96594.91;;;7.02;100.00
71105;BME280;58760;48.716;8.962;2023-05-02T02:09:45;96598.59;;;6.92;100.00
71105;BME280;58760;48.716;8.962;2023-05-02T02:14:42;96602.63;;;6.86;100.00
71105;BME280;58760;48.716;8.962;2023-05-02T02:17:29;96603.81;;;6.74;100.00
71105;BME280;58760;48.716;8.962;2023-05-02T02:20:00;96605.09;;;6.70;100.00
71105;BME280;58760;48.716;8.962;2023-05-02T02:22:27;96606.91;;;6.69;100.00
71105;BME280;58760;48.716;8.962;2023-05-02T02:24:54;96609.09;;;6.74;100.00
71105;BME280;58760;48.716;8.962;2023-05-02T02:27:21;96615.06;;;6.76;100.00
71105;BME280;58760;48.716;8.962;2023-05-02T02:29:46;96620.09;;;6.69;100.00
71105;BME280;58760;48.716;8.962;2023-05-02T02:32:12;96620.91;;;6.70;100.00
71105;BME280;58760;48.716;8.962;2023-05-02T02:34:37;96623.72;;;6.68;100.00
71105;BME280;58760;48.716;8.962;2023-05-02T02:37:19;96630.69;;;6.60;100.00
71105;BME280;58760;48.716;8.962;2023-05-02T02:45:28;96633.81;;;6.46;100.00
71105;BME280;58760;48.716;8.962;2023-05-02T02:48:07;96636.97;;;6.49;100.00
71105;BME280;58760;48.716;8.962;2023-05-02T02:51:02;96636.81;;;6.51;100.00
71105;BME280;58760;48.716;8.962;2023-05-02T02:53:56;96642.22;;;6.59;100.00
71105;BME280;58760;48.716;8.962;2023-05-02T02:56:35;96633.34;;;6.60;100.00
71105;BME280;58760;48.716;8.962;2023-05-02T02:59:14;96644.25;;;6.65;100.00
71105;BME280;58760;48.716;8.962;2023-05-02T03:01:44;96652.00;;;6.76;100.00
71105;BME280;58760;48.716;8.962;2023-05-02T03:04:11;96654.16;;;6.80;100.00
71105;BME280;58760;48.716;8.962;2023-05-02T03:06:37;96663.28;;;6.86;100.00
71105;BME280;58760;48.716;8.962;2023-05-02T03:09:03;96666.03;;;6.94;100.00
71105;BME280;58760;48.716;8.962;2023-05-02T03:11:28;96671.03;;;6.97;100.00
71105;BME280;58760;48.716;8.962;2023-05-02T03:13:54;96669.47;;;7.04;100.00
71105;BME280;58760;48.716;8.962;2023-05-02T03:16:32;96670.00;;;7.08;100.00
71105;BME280;58760;48.716;8.962;2023-05-02T03:18:58;96663.88;;;7.07;100.00
71105;BME280;58760;48.716;8.962;2023-05-02T03:21:24;96671.94;;;7.06;100.00
71105;BME280;58760;48.716;8.962;2023-05-02T03:23:49;96670.44;;;7.03;100.00
71105;BME280;58760;48.716;8.962;2023-05-02T03:26:15;96680.56;;;7.08;100.00
71105;BME280;58760;48.716;8.962;2023-05-02T03:28:41;96686.56;;;7.00;100.00
71105;BME280;58760;48.716;8.962;2023-05-02T03:31:06;96686.56;;;7.00;100.00
71105;BME280;58760;48.716;8.962;2023-05-02T03:33:32;96688.53;;;6.98;100.00
71105;BME280;58760;48.716;8.962;2023-05-02T03:35:57;96694.47;;;7.00;100.00
71105;BME280;58760;48.716;8.962;2023-05-02T03:38:23;96694.19;;;7.03;100.00
71105;BME280;58760;48.716;8.962;2023-05-02T03:40:48;96689.31;;;7.08;100.00
71105;BME280;58760;48.716;8.962;2023-05-02T03:43:14;96701.91;;;7.14;100.00
71105;BME280;58760;48.716;8.962;2023-05-02T03:45:39;96706.72;;;7.19;100.00
71105;BME280;58760;48.716;8.962;2023-05-02T03:48:05;96701.84;;;7.24;100.00
71105;BME280;58760;48.716;8.962;2023-05-02T03:50:30;96716.25;;;7.29;100.00
71105;BME280;58760;48.716;8.962;2023-05-02T03:52:56;96714.16;;;7.33;100.00
71105;BME280;58760;48.716;8.962;2023-05-02T03:55:22;96716.91;;;7.41;100.00
71105;BME280;58760;48.716;8.962;2023-05-02T03:57:47;96715.47;;;7.47;100.00
71105;BME280;58760;48.716;8.962;2023-05-02T04:00:13;96724.44;;;7.54;100.00
71105;BME280;58760;48.716;8.962;2023-05-02T04:02:38;96720.66;;;7.56;100.00
71105;BME280;58760;48.716;8.962;2023-05-02T04:05:04;96722.19;;;7.59;100.00
71105;BME280;58760;48.716;8.962;2023-05-02T04:07:29;96727.03;;;7.63;100.00
71105;BME280;58760;48.716;8.962;2023-05-02T04:09:54;96732.66;;;7.68;100.00
71105;BME280;58760;48.716;8.962;2023-05-02T04:12:20;96728.88;;;7.71;100.00
71105;BME280;58760;48.716;8.962;2023-05-02T04:14:45;96731.09;;;7.75;100.00
71105;BME280;58760;48.716;8.962;2023-05-02T04:17:11;96734.03;;;7.72;100.00
71105;BME280;58760;48.716;8.962;2023-05-02T04:19:36;96739.38;;;7.80;100.00
71105;BME280;58760;48.716;8.962;2023-05-02T04:22:02;96742.88;;;7.81;100.00
71105;BME280;58760;48.716;8.962;2023-05-02T04:24:27;96736.97;;;7.87;100.00
71105;BME280;58760;48.716;8.962;2023-05-02T04:26:53;96740.97;;;7.91;100.00
71105;BME280;58760;48.716;8.962;2023-05-02T04:29:18;96744.06;;;8.22;100.00
71105;BME280;58760;48.716;8.962;2023-05-02T04:31:44;96738.41;;;8.17;100.00
71105;BME280;58760;48.716;8.962;2023-05-02T04:34:12;96742.25;;;8.05;100.00
71105;BME280;58760;48.716;8.962;2023-05-02T04:36:37;96748.59;;;7.94;100.00
71105;BME280;58760;48.716;8.962;2023-05-02T04:39:03;96749.88;;;7.90;100.00
71105;BME280;58760;48.716;8.962;2023-05-02T04:41:31;96751.25;;;7.94;100.00
71105;BME280;58760;48.716;8.962;2023-05-02T04:43:56;96749.97;;;7.98;100.00
71105;BME280;58760;48.716;8.962;2023-05-02T04:46:22;96747.56;;;8.05;100.00
71105;BME280;58760;48.716;8.962;2023-05-02T04:48:47;96750.31;;;8.03;100.00
71105;BME280;58760;48.716;8.962;2023-05-02T04:51:13;96754.34;;;8.07;100.00
71105;BME280;58760;48.716;8.962;2023-05-02T04:53:38;96751.69;;;8.07;100.00
71105;BME280;58760;48.716;8.962;2023-05-02T04:56:04;96749.53;;;8.03;100.00
71105;BME280;58760;48.716;8.962;2023-05-02T04:58:29;96758.66;;;8.08;100.00
71105;BME280;58760;48.716;8.962;2023-05-02T05:00:56;96753.06;;;8.11;100.00
71105;BME280;58760;48.716;8.962;2023-05-02T05:03:21;96754.44;;;8.15;100.00
71105;BME280;58760;48.716;8.962;2023-05-02T05:05:47;96764.38;;;8.21;100.00
71105;BME280;58760;48.716;8.962;2023-05-02T05:08:12;96763.94;;;8.44;100.00
71105;BME280;58760;48.716;8.962;2023-05-02T05:10:38;96766.44;;;8.71;100.00
71105;BME280;58760;48.716;8.962;2023-05-02T05:13:05;96767.88;;;8.65;99.94
71105;BME280;58760;48.716;8.962;2023-05-02T05:15:30;96774.94;;;8.57;100.00
71105;BME280;58760;48.716;8.962;2023-05-02T05:17:55;96771.97;;;8.60;100.00
71105;BME280;58760;48.716;8.962;2023-05-02T05:20:21;96787.53;;;8.63;100.00
71105;BME280;58760;48.716;8.962;2023-05-02T05:22:46;96794.22;;;8.75;100.00
71105;BME280;58760;48.716;8.962;2023-05-02T05:25:12;96802.91;;;8.85;100.00
71105;BME280;58760;48.716;8.962;2023-05-02T05:27:37;96805.84;;;8.82;100.00
71105;BME280;58760;48.716;8.962;2023-05-02T05:30:04;96809.34;;;8.82;100.00
71105;BME280;58760;48.716;8.962;2023-05-02T05:32:32;96809.03;;;8.85;100.00
71105;BME280;58760;48.716;8.962;2023-05-02T05:34:57;96804.91;;;8.91;100.00
71105;BME280;58760;48.716;8.962;2023-05-02T05:37:23;96811.78;;;9.02;100.00
71105;BME280;58760;48.716;8.962;2023-05-02T05:39:48;96809.72;;;9.13;100.00
71105;BME280;58760;48.716;8.962;2023-05-02T05:42:14;96815.09;;;9.29;99.72
71105;BME280;58760;48.716;8.962;2023-05-02T05:44:39;96817.13;;;9.43;98.80
71105;BME280;58760;48.716;8.962;2023-05-02T05:47:05;96822.16;;;9.55;98.54
71105;BME280;58760;48.716;8.962;2023-05-02T05:49:30;96825.34;;;9.66;97.14
71105;BME280;58760;48.716;8.962;2023-05-02T05:51:56;96818.94;;;9.77;96.02
71105;BME280;58760;48.716;8.962;2023-05-02T05:54:22;96820.28;;;9.89;94.60
71105;BME280;58760;48.716;8.962;2023-05-02T05:56:47;96819.94;;;9.92;93.05
71105;BME280;58760;48.716;8.962;2023-05-02T05:59:13;96827.94;;;10.08;92.85
71105;BME280;58760;48.716;8.962;2023-05-02T06:01:39;96820.38;;;10.21;92.23
71105;BME280;58760;48.716;8.962;2023-05-02T06:04:04;96830.84;;;10.23;91.85
71105;BME280;58760;48.716;8.962;2023-05-02T06:06:31;96823.38;;;10.26;91.38
71105;BME280;58760;48.716;8.962;2023-05-02T06:08:57;96837.66;;;10.33;90.05
71105;BME280;58760;48.716;8.962;2023-05-02T06:11:22;96839.63;;;10.31;89.85
71105;BME280;58760;48.716;8.962;2023-05-02T06:13:51;96840.97;;;10.35;89.62
71105;BME280;58760;48.716;8.962;2023-05-02T06:16:17;96852.75;;;10.41;88.71
71105;BME280;58760;48.716;8.962;2023-05-02T06:18:43;96840.81;;;10.37;87.70
71105;BME280;58760;48.716;8.962;2023-05-02T06:21:08;96848.28;;;10.33;88.03
71105;BME280;58760;48.716;8.962;2023-05-02T06:23:34;96851.91;;;10.40;87.67
71105;BME280;58760;48.716;8.962;2023-05-02T06:26:00;96846.31;;;10.43;87.19
71105;BME280;58760;48.716;8.962;2023-05-02T06:28:27;96862.53;;;10.48;87.81
71105;BME280;58760;48.716;8.962;2023-05-02T06:30:59;96864.69;;;10.45;87.29
71105;BME280;58760;48.716;8.962;2023-05-02T06:33:26;96868.00;;;10.47;87.22
71105;BME280;58760;48.716;8.962;2023-05-02T06:35:52;96869.84;;;10.46;87.15
71105;BME280;58760;48.716;8.962;2023-05-02T06:38:18;96872.19;;;10.49;87.05
71105;BME280;58760;48.716;8.962;2023-05-02T06:40:44;96869.84;;;10.46;87.24
71105;BME280;58760;48.716;8.962;2023-05-02T06:43:10;96872.81;;;10.52;86.34
71105;BME280;58760;48.716;8.962;2023-05-02T06:45:35;96876.13;;;10.54;86.80
71105;BME280;58760;48.716;8.962;2023-05-02T06:48:01;96880.78;;;10.52;87.00
71105;BME280;58760;48.716;8.962;2023-05-02T06:50:27;96887.06;;;10.50;86.85
71105;BME280;58760;48.716;8.962;2023-05-02T06:52:53;96880.47;;;10.46;86.16
71105;BME280;58760;48.716;8.962;2023-05-02T06:55:18;96886.09;;;10.52;86.18
71105;BME280;58760;48.716;8.962;2023-05-02T06:57:43;96890.75;;;10.58;86.74
71105;BME280;58760;48.716;8.962;2023-05-02T07:00:09;96887.09;;;10.67;86.55
71105;BME280;58760;48.716;8.962;2023-05-02T07:02:34;96891.44;;;10.76;85.96
71105;BME280;58760;48.716;8.962;2023-05-02T07:05:00;96893.06;;;10.77;85.36
71105;BME280;58760;48.716;8.962;2023-05-02T07:07:25;96895.91;;;10.91;85.63
71105;BME280;58760;48.716;8.962;2023-05-02T07:09:51;96902.88;;;11.00;85.34
71105;BME280;58760;48.716;8.962;2023-05-02T07:12:16;96911.69;;;11.01;84.16
71105;BME280;58760;48.716;8.962;2023-05-02T07:14:42;96917.16;;;11.08;83.57
71105;BME280;58760;48.716;8.962;2023-05-02T07:17:08;96917.31;;;11.14;84.33
71105;BME280;58760;48.716;8.962;2023-05-02T07:19:33;96921.31;;;11.10;83.58
71105;BME280;58760;48.716;8.962;2023-05-02T07:21:58;96923.28;;;11.16;83.79
71105;BME280;58760;48.716;8.962;2023-05-02T07:24:24;96918.97;;;11.23;83.37
71105;BME280;58760;48.716;8.962;2023-05-02T07:26:50;96920.66;;;11.24;83.59
71105;BME280;58760;48.716;8.962;2023-05-02T07:29:15;96924.75;;;11.35;83.81
71105;BME280;58760;48.716;8.962;2023-05-02T07:31:41;96914.63;;;11.38;83.69
71105;BME280;58760;48.716;8.962;2023-05-02T07:34:06;96913.34;;;11.34;83.88
71105;BME280;58760;48.716;8.962;2023-05-02T07:36:31;96919.56;;;11.57;83.20
71105;BME280;58760;48.716;8.962;2023-05-02T07:38:57;96911.13;;;11.70;82.93
71105;BME280;58760;48.716;8.962;2023-05-02T07:41:22;96923.19;;;11.89;82.09
71105;BME280;58760;48.716;8.962;2023-05-02T07:43:48;96927.63;;;12.04;81.29
71105;BME280;58760;48.716;8.962;2023-05-02T07:46:13;96925.75;;;12.13;80.98
71105;BME280;58760;48.716;8.962;2023-05-02T07:48:39;96916.84;;;12.06;80.78
71105;BME280;58760;48.716;8.962;2023-05-02T07:51:09;96925.13;;;12.03;80.68
71105;BME280;58760;48.716;8.962;2023-05-02T07:53:34;96929.00;;;11.92;81.33
71105;BME280;58760;48.716;8.962;2023-05-02T07:56:02;96927.34;;;11.91;81.46
71105;BME280;58760;48.716;8.962;2023-05-02T07:58:29;96929.44;;;12.04;80.53
71105;BME280;58760;48.716;8.962;2023-05-02T08:00:54;96934.72;;;12.20;80.65
71105;BME280;58760;48.716;8.962;2023-05-02T08:03:19;96935.31;;;12.38;80.56
71105;BME280;58760;48.716;8.962;2023-05-02T08:05:45;96942.59;;;12.44;80.09
71105;BME280;58760;48.716;8.962;2023-05-02T08:08:10;96944.16;;;12.31;80.49
71105;BME280;58760;48.716;8.962;2023-05-02T08:10:36;96949.69;;;12.21;79.90
71105;BME280;58760;48.716;8.962;2023-05-02T08:13:01;96946.84;;;12.23;79.56
71105;BME280;58760;48.716;8.962;2023-05-02T08:15:26;96955.31;;;12.26;80.27
71105;BME280;58760;48.716;8.962;2023-05-02T08:17:52;96958.50;;;12.14;80.53
71105;BME280;58760;48.716;8.962;2023-05-02T08:20:17;96956.81;;;12.29;80.50
71105;BME280;58760;48.716;8.962;2023-05-02T08:22:43;96964.94;;;12.27;79.13
71105;BME280;58760;48.716;8.962;2023-05-02T08:25:08;96951.41;;;12.45;80.45
71105;BME280;58760;48.716;8.962;2023-05-02T08:27:33;96959.38;;;12.76;78.60
71105;BME280;58760;48.716;8.962;2023-05-02T08:29:59;96963.97;;;12.90;77.01
71105;BME280;58760;48.716;8.962;2023-05-02T08:32:25;96959.53;;;13.05;76.18
71105;BME280;58760;48.716;8.962;2023-05-02T08:34:54;96958.84;;;13.11;74.70
71105;BME280;58760;48.716;8.962;2023-05-02T08:37:20;96967.06;;;13.24;75.59
71105;BME280;58760;48.716;8.962;2023-05-02T08:39:45;96962.41;;;13.26;75.67
71105;BME280;58760;48.716;8.962;2023-05-02T08:42:11;96956.72;;;13.29;75.62
71105;BME280;58760;48.716;8.962;2023-05-02T08:44:36;96961.81;;;13.53;74.75
71105;BME280;58760;48.716;8.962;2023-05-02T08:47:02;96962.31;;;13.72;73.81
71105;BME280;58760;48.716;8.962;2023-05-02T08:49:31;96955.59;;;13.76;74.29
71105;BME280;58760;48.716;8.962;2023-05-02T08:52:00;96967.03;;;13.84;73.37
71105;BME280;58760;48.716;8.962;2023-05-02T08:54:26;96967.03;;;13.84;72.89
71105;BME280;58760;48.716;8.962;2023-05-02T08:56:55;96962.44;;;13.78;73.96
71105;BME280;58760;48.716;8.962;2023-05-02T08:59:23;96971.22;;;13.64;74.23
71105;BME280;58760;48.716;8.962;2023-05-02T09:01:51;96977.03;;;13.68;74.81
71105;BME280;58760;48.716;8.962;2023-05-02T09:04:22;96971.13;;;13.57;75.21
71105;BME280;58760;48.716;8.962;2023-05-02T09:06:48;96973.53;;;13.67;74.21
71105;BME280;58760;48.716;8.962;2023-05-02T09:09:13;96977.75;;;13.61;73.41
71105;BME280;58760;48.716;8.962;2023-05-02T09:11:39;96977.75;;;13.61;74.50
71105;BME280;58760;48.716;8.962;2023-05-02T09:14:13;96986.75;;;13.60;75.29
71105;BME280;58760;48.716;8.962;2023-05-02T09:16:39;96978.53;;;13.85;72.90
71105;BME280;58760;48.716;8.962;2023-05-02T09:19:04;96984.78;;;13.92;71.71
71105;BME280;58760;48.716;8.962;2023-05-02T09:21:39;96986.91;;;13.82;71.88
71105;BME280;58760;48.716;8.962;2023-05-02T09:24:16;96990.56;;;13.95;72.87
71105;BME280;58760;48.716;8.962;2023-05-02T09:27:02;96986.19;;;14.17;71.75
71105;BME280;58760;48.716;8.962;2023-05-02T09:29:28;96985.91;;;14.27;71.09
71105;BME280;58760;48.716;8.962;2023-05-02T09:31:59;96983.28;;;14.77;68.96
71105;BME280;58760;48.716;8.962;2023-05-02T09:34:24;96978.44;;;15.02;68.41
71105;BME280;58760;48.716;8.962;2023-05-02T09:36:50;96981.84;;;14.96;67.21
71105;BME280;58760;48.716;8.962;2023-05-02T09:39:25;96972.59;;;15.34;67.41
71105;BME280;58760;48.716;8.962;2023-05-02T09:41:53;96968.94;;;15.42;65.02
71105;BME280;58760;48.716;8.962;2023-05-02T09:44:21;96981.69;;;15.18;64.70
71105;BME280;58760;48.716;8.962;2023-05-02T09:49:12;96984.50;;;15.32;63.56
71105;BME280;58760;48.716;8.962;2023-05-02T09:51:39;96979.84;;;15.19;63.17
71105;BME280;58760;48.716;8.962;2023-05-02T09:54:05;96982.31;;;14.99;63.48
71105;BME280;58760;48.716;8.962;2023-05-02T09:56:30;96982.50;;;14.98;64.20
71105;BME280;58760;48.716;8.962;2023-05-02T09:59:12;96989.63;;;14.91;63.45
71105;BME280;58760;48.716;8.962;2023-05-02T10:01:39;96990.63;;;14.90;63.36
71105;BME280;58760;48.716;8.962;2023-05-02T10:04:11;96983.16;;;15.00;62.42
71105;BME280;58760;48.716;8.962;2023-05-02T10:06:44;96989.31;;;15.00;63.95
71105;BME280;58760;48.716;8.962;2023-05-02T10:09:10;96981.91;;;15.17;62.83
71105;BME280;58760;48.716;8.962;2023-05-02T10:11:38;96990.28;;;15.35;61.58
71105;BME280;58760;48.716;8.962;2023-05-02T10:14:10;96979.19;;;15.53;61.23
71105;BME280;58760;48.716;8.962;2023-05-02T10:16:38;96983.53;;;15.54;60.29
71105;BME280;58760;48.716;8.962;2023-05-02T10:19:11;96984.63;;;15.45;58.70
71105;BME280;58760;48.716;8.962;2023-05-02T10:21:38;96984.63;;;15.45;58.00
71105;BME280;58760;48.716;8.962;2023-05-02T10:24:04;96987.88;;;15.40;60.93
71105;BME280;58760;48.716;8.962;2023-05-02T10:26:30;96994.81;;;15.35;62.88
71105;BME280;58760;48.716;8.962;2023-05-02T10:28:59;96988.53;;;15.21;63.75
71105;BME280;58760;48.716;8.962;2023-05-02T10:31:25;96986.59;;;15.36;63.14
71105;BME280;58760;48.716;8.962;2023-05-02T10:33:51;96985.53;;;15.52;62.11
71105;BME280;58760;48.716;8.962;2023-05-02T10:36:20;96981.25;;;15.57;60.79
71105;BME280;58760;48.716;8.962;2023-05-02T10:38:47;96979.81;;;16.10;59.32
71105;BME280;58760;48.716;8.962;2023-05-02T10:41:26;96981.41;;;16.39;57.63
71105;BME280;58760;48.716;8.962;2023-05-02T10:43:53;96972.31;;;16.68;58.37
71105;BME280;58760;48.716;8.962;2023-05-02T10:46:34;96970.72;;;16.80;55.01
71105;BME280;58760;48.716;8.962;2023-05-02T10:49:10;96964.13;;;16.83;54.79
71105;BME280;58760;48.716;8.962;2023-05-02T10:51:38;96966.16;;;16.67;55.31
71105;BME280;58760;48.716;8.962;2023-05-02T10:54:24;96961.88;;;16.45;56.12
71105;BME280;58760;48.716;8.962;2023-05-02T11:01:56;96958.41;;;16.45;56.87
71105;BME280;58760;48.716;8.962;2023-05-02T11:04:22;96972.47;;;16.19;59.36
71105;BME280;58760;48.716;8.962;2023-05-02T11:11:51;96969.00;;;16.59;58.19
71105;BME280;58760;48.716;8.962;2023-05-02T11:24:45;96960.63;;;16.82;53.65
71105;BME280;58760;48.716;8.962;2023-05-02T11:30:01;96960.97;;;17.53;52.36
71105;BME280;58760;48.716;8.962;2023-05-02T11:35:22;96960.38;;;17.57;53.95
71105;BME280;58760;48.716;8.962;2023-05-02T11:38:01;96948.19;;;18.07;52.69
71105;BME280;58760;48.716;8.962;2023-05-02T11:40:31;96950.88;;;18.01;53.40
71105;BME280;58760;48.716;8.962;2023-05-02T11:42:57;96950.25;;;17.99;53.10
71105;BME280;58760;48.716;8.962;2023-05-02T11:45:36;96954.16;;;18.16;50.66
71105;BME280;58760;48.716;8.962;2023-05-02T11:48:05;96940.97;;;18.72;51.65
71105;BME280;58760;48.716;8.962;2023-05-02T11:50:32;96939.44;;;19.27;48.09
71105;BME280;58760;48.716;8.962;2023-05-02T11:52:58;96944.59;;;18.91;48.98
71105;BME280;58760;48.716;8.962;2023-05-02T11:55:24;96951.19;;;19.01;47.50
71105;BME280;58760;48.716;8.962;2023-05-02T11:57:49;96941.63;;;19.37;47.70
71105;BME280;58760;48.716;8.962;2023-05-02T12:00:15;96952.38;;;19.05;48.47
71105;BME280;58760;48.716;8.962;2023-05-02T12:02:42;96959.03;;;18.45;50.72
71105;BME280;58760;48.716;8.962;2023-05-02T12:05:10;96960.16;;;17.98;49.96
71105;BME280;58760;48.716;8.962;2023-05-02T12:07:44;96967.00;;;17.68;48.68
71105;BME280;58760;48.716;8.962;2023-05-02T12:10:11;96966.09;;;17.21;53.28
71105;BME280;58760;48.716;8.962;2023-05-02T12:12:37;96959.22;;;16.93;54.93
71105;BME280;58760;48.716;8.962;2023-05-02T12:15:05;96969.53;;;16.96;54.59
71105;BME280;58760;48.716;8.962;2023-05-02T12:17:32;96959.22;;;16.93;55.11
71105;BME280;58760;48.716;8.962;2023-05-02T12:19:59;96964.16;;;16.89;53.49
71105;BME280;58760;48.716;8.962;2023-05-02T12:22:27;96953.81;;;16.80;52.17
71105;BME280;58760;48.716;8.962;2023-05-02T12:24:53;96958.16;;;16.81;52.31
71105;BME280;58760;48.716;8.962;2023-05-02T12:27:18;96966.69;;;17.10;52.73
71105;BME280;58760;48.716;8.962;2023-05-02T12:29:46;96967.06;;;17.01;56.41
71105;BME280;58760;48.716;8.962;2023-05-02T12:32:12;96970.44;;;17.22;55.55
71105;BME280;58760;48.716;8.962;2023-05-02T12:34:39;96963.59;;;17.20;53.59
71105;BME280;58760;48.716;8.962;2023-05-02T12:37:05;96956.63;;;17.25;54.05
71105;BME280;58760;48.716;8.962;2023-05-02T12:39:39;96952.31;;;17.97;50.89
71105;BME280;58760;48.716;8.962;2023-05-02T12:42:11;96950.34;;;19.01;49.79
71105;BME280;58760;48.716;8.962;2023-05-02T12:44:38;96962.31;;;19.99;47.17
71105;BME280;58760;48.716;8.962;2023-05-02T12:47:05;96949.94;;;20.52;47.23
71105;BME280;58760;48.716;8.962;2023-05-02T12:49:31;96955.13;;;20.54;47.52
71105;BME280;58760;48.716;8.962;2023-05-02T12:51:56;96960.56;;;20.65;45.24
71105;BME280;58760;48.716;8.962;2023-05-02T12:54:22;96951.66;;;21.31;43.55
71105;BME280;58760;48.716;8.962;2023-05-02T12:56:48;96954.44;;;21.24;41.73
71105;BME280;58760;48.716;8.962;2023-05-02T12:59:30;96956.69;;;20.79;42.68
71105;BME280;58760;48.716;8.962;2023-05-02T13:01:56;96954.69;;;21.05;43.58
71105;BME280;58760;48.716;8.962;2023-05-02T13:04:38;96957.00;;;21.49;43.11
71105;BME280;58760;48.716;8.962;2023-05-02T13:07:05;96953.53;;;21.83;43.46
71105;BME280;58760;48.716;8.962;2023-05-02T13:09:31;96950.53;;;22.15;41.58
71105;BME280;58760;48.716;8.962;2023-05-02T13:11:56;96960.50;;;22.49;41.84
71105;BME280;58760;48.716;8.962;2023-05-02T13:14:26;96957.94;;;22.19;39.42
71105;BME280;58760;48.716;8.962;2023-05-02T13:16:51;96950.59;;;22.66;40.03
71105;BME280;58760;48.716;8.962;2023-05-02T13:19:22;96953.16;;;22.84;39.49
71105;BME280;58760;48.716;8.962;2023-05-02T13:21:47;96949.00;;;22.93;39.99
71105;BME280;58760;48.716;8.962;2023-05-02T13:24:13;96952.97;;;22.51;39.78
71105;BME280;58760;48.716;8.962;2023-05-02T13:26:39;96952.94;;;21.28;41.89
71105;BME280;58760;48.716;8.962;2023-05-02T13:29:05;96952.34;;;21.79;39.91
71105;BME280;58760;48.716;8.962;2023-05-02T13:31:33;96946.44;;;21.59;40.40
71105;BME280;58760;48.716;8.962;2023-05-02T13:33:59;96959.69;;;22.25;38.00
71105;BME280;58760;48.716;8.962;2023-05-02T13:36:24;96946.53;;;22.17;39.58
71105;BME280;58760;48.716;8.962;2023-05-02T13:38:50;96943.94;;;22.22;37.62
71105;BME280;58760;48.716;8.962;2023-05-02T13:41:15;96948.19;;;21.12;40.83
71105;BME280;58760;48.716;8.962;2023-05-02T13:43:41;96946.06;;;22.09;40.21
71105;BME280;58760;48.716;8.962;2023-05-02T13:46:06;96950.34;;;21.22;42.19